createdAt,value
2017-05-31T00:00:32.175Z,7.04
2017-05-31T00:02:59.724Z,7.02
2017-05-31T00:05:27.336Z,7.32
2017-05-31T00:07:55.012Z,6.54
2017-05-31T00:10:22.614Z,7.34
2017-05-31T00:12:50.219Z,8.00
2017-05-31T00:15:17.810Z,7.40
2017-05-31T00:17:45.374Z,8.12
2017-05-31T00:20:12.937Z,7.02
2017-05-31T00:22:40.554Z,7.12
2017-05-31T00:25:08.097Z,7.08
2017-05-31T00:27:36.014Z,6.72
2017-05-31T00:30:05.906Z,6.84
2017-05-31T00:32:33.484Z,7.38
2017-05-31T00:35:01.084Z,7.80
2017-05-31T00:37:28.688Z,7.38
2017-05-31T00:39:56.283Z,7.44
2017-05-31T00:42:23.874Z,6.46
2017-05-31T00:44:51.482Z,7.40
2017-05-31T00:47:19.029Z,7.24
2017-05-31T00:49:46.569Z,6.86
2017-05-31T00:52:14.184Z,6.30
2017-05-31T00:54:41.725Z,6.92
2017-05-31T00:57:09.534Z,6.16
2017-05-31T00:59:37.138Z,6.58
2017-05-31T01:02:04.727Z,5.70
2017-05-31T01:04:32.269Z,5.94
2017-05-31T01:06:59.847Z,6.10
2017-05-31T01:09:27.495Z,5.52
2017-05-31T01:11:55.042Z,5.40
2017-05-31T01:14:22.605Z,6.06
2017-05-31T01:16:50.199Z,5.16
2017-05-31T01:19:18.905Z,4.58
2017-05-31T01:21:46.455Z,5.10
2017-05-31T01:24:14.078Z,5.68
2017-05-31T01:26:41.618Z,5.30
2017-05-31T01:29:09.185Z,5.64
2017-05-31T01:31:36.763Z,5.32
2017-05-31T01:34:04.342Z,6.04
2017-05-31T01:36:31.927Z,5.22
2017-05-31T01:38:59.526Z,5.74
2017-05-31T01:41:27.080Z,5.60
2017-05-31T01:43:54.670Z,5.78
2017-05-31T01:46:22.355Z,6.76
2017-05-31T01:48:49.952Z,6.06
2017-05-31T01:51:17.502Z,7.00
2017-05-31T01:53:45.100Z,6.22
2017-05-31T01:56:12.666Z,6.16
2017-05-31T01:58:40.214Z,6.44
2017-05-31T02:01:08.528Z,6.08
2017-05-31T02:03:36.088Z,6.46
2017-05-31T02:06:04.545Z,6.90
2017-05-31T02:08:32.150Z,6.60
2017-05-31T02:10:59.693Z,7.66
2017-05-31T02:13:28.283Z,7.24
2017-05-31T02:15:55.874Z,6.10
2017-05-31T02:18:23.418Z,7.02
2017-05-31T02:20:50.992Z,6.30
2017-05-31T02:23:18.573Z,6.90
2017-05-31T02:25:46.122Z,6.54
2017-05-31T02:28:13.669Z,6.20
2017-05-31T02:30:41.268Z,6.66
2017-05-31T02:33:08.843Z,7.42
2017-05-31T02:35:36.711Z,7.64
2017-05-31T02:38:04.290Z,6.88
2017-05-31T02:40:32.109Z,6.50
2017-05-31T02:42:59.904Z,7.70
2017-05-31T02:45:27.486Z,7.28
2017-05-31T02:47:55.043Z,7.32
2017-05-31T02:50:22.595Z,7.32
2017-05-31T02:52:50.182Z,7.42
2017-05-31T02:55:17.961Z,7.68
2017-05-31T02:57:45.554Z,7.96
2017-05-31T03:00:13.335Z,8.52
2017-05-31T03:02:40.875Z,7.42
2017-05-31T03:05:08.451Z,6.26
2017-05-31T03:07:36.059Z,6.02
2017-05-31T03:10:04.126Z,6.36
2017-05-31T03:12:31.907Z,6.90
2017-05-31T03:14:59.534Z,6.28
2017-05-31T03:17:27.079Z,5.56
2017-05-31T03:19:54.610Z,5.84
2017-05-31T03:22:22.199Z,6.42
2017-05-31T03:24:49.795Z,6.04
2017-05-31T03:27:17.382Z,7.18
2017-05-31T03:29:44.994Z,6.86
2017-05-31T03:32:12.590Z,6.12
2017-05-31T03:34:40.163Z,6.24
2017-05-31T03:37:07.731Z,6.02
2017-05-31T03:39:35.542Z,6.32
2017-05-31T03:42:03.154Z,5.60
2017-05-31T03:44:30.748Z,6.30
2017-05-31T03:46:58.377Z,5.88
2017-05-31T03:49:25.942Z,6.24
2017-05-31T03:51:53.529Z,7.22
2017-05-31T03:54:21.122Z,5.52
2017-05-31T03:56:48.707Z,6.22
2017-05-31T03:59:16.283Z,5.60
2017-05-31T04:01:43.897Z,6.00
2017-05-31T04:04:11.466Z,6.32
2017-05-31T04:06:39.051Z,7.10
2017-05-31T04:09:06.869Z,6.34
2017-05-31T04:11:34.472Z,7.00
2017-05-31T04:14:02.122Z,6.60
2017-05-31T04:16:30.448Z,7.50
2017-05-31T04:18:58.127Z,7.12
2017-05-31T04:21:26.373Z,9.00
2017-05-31T04:23:53.982Z,7.30
2017-05-31T04:26:21.606Z,9.28
2017-05-31T04:28:49.174Z,8.40
2017-05-31T04:31:16.810Z,7.96
2017-05-31T04:33:44.394Z,7.88
2017-05-31T04:36:12.386Z,10.26
2017-05-31T04:38:40.858Z,10.10
2017-05-31T04:41:08.466Z,9.54
2017-05-31T04:43:36.075Z,11.48
2017-05-31T04:46:03.709Z,12.08
2017-05-31T04:48:31.319Z,12.40
2017-05-31T04:50:58.926Z,11.40
2017-05-31T04:53:26.530Z,11.00
2017-05-31T04:55:54.309Z,11.66
2017-05-31T04:58:21.891Z,10.50
2017-05-31T05:00:49.574Z,11.58
2017-05-31T05:03:17.122Z,12.98
2017-05-31T05:05:44.678Z,12.74
2017-05-31T05:08:12.327Z,10.82
2017-05-31T05:10:39.882Z,9.36
2017-05-31T05:13:07.494Z,9.46
2017-05-31T05:15:35.100Z,10.70
2017-05-31T05:18:02.666Z,10.40
2017-05-31T05:20:30.219Z,9.72
2017-05-31T05:22:57.798Z,9.08
2017-05-31T05:25:25.353Z,7.78
2017-05-31T05:27:52.948Z,9.56
2017-05-31T05:30:20.683Z,11.30
2017-05-31T05:32:48.250Z,10.12
2017-05-31T05:35:15.857Z,10.00
2017-05-31T05:37:43.447Z,10.46
2017-05-31T05:40:10.999Z,9.58
2017-05-31T05:42:38.546Z,9.60
2017-05-31T05:45:06.133Z,12.40
2017-05-31T05:47:33.701Z,10.90
2017-05-31T05:50:01.487Z,8.04
2017-05-31T05:52:29.111Z,7.76
2017-05-31T05:54:56.721Z,6.90
2017-05-31T05:57:24.291Z,8.16
2017-05-31T05:59:51.871Z,8.38
2017-05-31T06:02:19.464Z,7.30
2017-05-31T06:04:47.010Z,7.62
2017-05-31T06:07:14.834Z,8.12
2017-05-31T06:09:42.412Z,7.42
2017-05-31T06:12:09.959Z,6.80
2017-05-31T06:14:37.515Z,6.40
2017-05-31T06:17:05.099Z,5.92
2017-05-31T06:19:32.659Z,8.22
2017-05-31T06:22:00.214Z,8.12
2017-05-31T06:24:27.792Z,6.86
2017-05-31T06:26:55.329Z,7.62
2017-05-31T06:29:23.146Z,6.86
2017-05-31T06:31:50.761Z,8.14
2017-05-31T06:34:18.313Z,6.62
2017-05-31T06:36:45.893Z,5.70
2017-05-31T06:39:13.483Z,7.08
2017-05-31T06:41:41.078Z,6.36
2017-05-31T06:44:08.653Z,6.58
2017-05-31T06:46:36.512Z,7.06
2017-05-31T06:49:04.158Z,6.10
2017-05-31T06:51:31.734Z,6.58
2017-05-31T06:53:59.315Z,7.42
2017-05-31T06:56:26.878Z,6.92
2017-05-31T06:58:54.458Z,8.02
2017-05-31T07:01:22.040Z,6.72
2017-05-31T07:03:49.599Z,7.10
2017-05-31T07:06:17.154Z,8.08
2017-05-31T07:08:44.765Z,6.92
2017-05-31T07:11:12.302Z,7.28
2017-05-31T07:13:39.857Z,7.10
2017-05-31T07:16:07.438Z,7.36
2017-05-31T07:18:35.254Z,6.18
2017-05-31T07:21:02.812Z,6.36
2017-05-31T07:23:30.396Z,7.64
2017-05-31T07:25:58.013Z,6.06
2017-05-31T07:28:25.560Z,6.56
2017-05-31T07:30:53.165Z,6.64
2017-05-31T07:33:20.722Z,6.54
2017-05-31T07:35:48.274Z,6.44
2017-05-31T07:38:15.855Z,6.24
2017-05-31T07:40:43.415Z,7.38
2017-05-31T07:43:10.995Z,6.58
2017-05-31T07:45:38.607Z,6.76
2017-05-31T07:48:06.379Z,5.88
2017-05-31T07:50:33.918Z,7.04
2017-05-31T07:53:01.503Z,6.58
2017-05-31T07:55:29.057Z,6.04
2017-05-31T07:57:56.603Z,6.12
2017-05-31T08:00:24.303Z,6.66
2017-05-31T08:02:51.914Z,7.02
2017-05-31T08:05:19.460Z,6.10
2017-05-31T08:07:47.071Z,6.02
2017-05-31T08:10:14.638Z,7.82
2017-05-31T08:12:42.219Z,6.44
2017-05-31T08:15:09.818Z,6.42
2017-05-31T08:17:37.362Z,7.32
2017-05-31T08:20:04.918Z,7.02
2017-05-31T08:22:32.496Z,5.82
2017-05-31T08:25:00.038Z,5.48
2017-05-31T08:27:27.579Z,5.86
2017-05-31T08:29:55.161Z,5.80
2017-05-31T08:32:22.747Z,6.38
2017-05-31T08:34:50.556Z,5.34
2017-05-31T08:37:18.099Z,5.28
2017-05-31T08:39:45.686Z,5.00
2017-05-31T08:42:13.235Z,4.82
2017-05-31T08:44:40.780Z,4.84
2017-05-31T08:47:08.383Z,4.78
2017-05-31T08:49:35.923Z,4.52
2017-05-31T08:52:03.471Z,5.00
2017-05-31T08:54:31.735Z,4.30
2017-05-31T08:56:59.294Z,4.30
2017-05-31T08:59:26.896Z,4.72
2017-05-31T09:01:54.506Z,4.98
2017-05-31T09:04:22.057Z,5.56
2017-05-31T09:06:49.871Z,4.70
2017-05-31T09:09:17.469Z,4.80
2017-05-31T09:11:45.035Z,3.74
2017-05-31T09:14:12.612Z,4.30
2017-05-31T09:16:40.223Z,3.62
2017-05-31T09:19:07.798Z,3.84
2017-05-31T09:21:35.354Z,3.98
2017-05-31T09:24:02.959Z,3.72
2017-05-31T09:26:30.529Z,5.32
2017-05-31T09:28:58.080Z,4.18
2017-05-31T09:31:25.665Z,4.60
2017-05-31T09:33:53.225Z,3.56
2017-05-31T09:36:20.765Z,3.92
2017-05-31T09:38:48.343Z,4.30
2017-05-31T09:41:15.903Z,3.74
2017-05-31T09:43:43.460Z,4.10
2017-05-31T09:46:11.078Z,4.18
2017-05-31T09:48:38.890Z,4.46
2017-05-31T09:51:06.474Z,5.06
2017-05-31T09:53:34.054Z,4.46
2017-05-31T09:56:01.595Z,4.34
2017-05-31T09:58:29.139Z,4.60
2017-05-31T10:00:56.762Z,4.32
2017-05-31T10:03:24.323Z,4.24
2017-05-31T10:05:51.860Z,4.14
2017-05-31T10:08:19.434Z,4.30
2017-05-31T10:10:46.984Z,3.96
2017-05-31T10:13:14.565Z,4.20
2017-05-31T10:15:42.150Z,4.10
2017-05-31T10:18:09.758Z,3.80
2017-05-31T10:20:37.347Z,3.94
2017-05-31T10:23:04.933Z,3.78
2017-05-31T10:25:32.480Z,3.20
2017-05-31T10:28:00.073Z,4.16
2017-05-31T10:30:27.830Z,3.76
2017-05-31T10:32:55.373Z,3.44
2017-05-31T10:35:22.918Z,3.90
2017-05-31T10:37:50.494Z,3.98
2017-05-31T10:40:18.039Z,3.88
2017-05-31T10:42:45.594Z,3.60
2017-05-31T10:45:13.179Z,3.52
2017-05-31T10:47:40.746Z,4.04
2017-05-31T10:50:08.290Z,3.52
2017-05-31T10:52:35.863Z,3.82
2017-05-31T10:55:03.402Z,3.70
2017-05-31T10:57:30.994Z,3.78
2017-05-31T11:00:07.930Z,3.62
2017-05-31T11:02:35.482Z,3.98
2017-05-31T11:05:03.034Z,4.22
2017-05-31T11:07:30.660Z,3.88
2017-05-31T11:09:58.215Z,3.50
2017-05-31T11:12:25.751Z,3.70
2017-05-31T11:14:53.354Z,3.60
2017-05-31T11:17:20.903Z,3.58
2017-05-31T11:19:48.455Z,4.06
2017-05-31T11:22:16.057Z,3.58
2017-05-31T11:24:43.609Z,3.88
2017-05-31T11:27:11.149Z,3.50
2017-05-31T11:29:38.759Z,3.76
2017-05-31T11:32:06.340Z,3.00
2017-05-31T11:34:33.879Z,3.20
2017-05-31T11:37:01.434Z,3.18
2017-05-31T11:39:29.354Z,3.44
2017-05-31T11:41:56.899Z,3.12
2017-05-31T11:44:24.450Z,3.50
2017-05-31T11:46:52.054Z,2.76
2017-05-31T11:49:19.600Z,3.74
2017-05-31T11:51:47.142Z,2.90
2017-05-31T11:54:15.353Z,3.32
2017-05-31T11:56:42.908Z,3.48
2017-05-31T11:59:10.498Z,3.60
2017-05-31T12:01:38.080Z,4.06
2017-05-31T12:04:05.910Z,3.42
2017-05-31T12:06:33.471Z,3.14
2017-05-31T12:09:01.062Z,3.00
2017-05-31T12:11:28.628Z,3.02
2017-05-31T12:13:56.174Z,2.80
2017-05-31T12:16:23.761Z,3.28
2017-05-31T12:18:51.306Z,3.00
2017-05-31T12:21:18.928Z,3.78
2017-05-31T12:23:46.537Z,3.46
2017-05-31T12:26:14.083Z,3.40
2017-05-31T12:28:41.655Z,3.70
2017-05-31T12:31:09.265Z,3.70
2017-05-31T12:33:36.820Z,4.10
2017-05-31T12:36:04.365Z,4.66
2017-05-31T12:38:31.962Z,4.36
2017-05-31T12:40:59.512Z,4.40
2017-05-31T12:43:27.074Z,3.56
2017-05-31T12:45:54.674Z,3.78
2017-05-31T12:48:22.224Z,3.68
2017-05-31T12:50:49.825Z,5.20
2017-05-31T12:53:17.395Z,3.46
2017-05-31T12:55:44.939Z,3.40
2017-05-31T12:58:12.480Z,4.40
2017-05-31T13:00:40.179Z,4.64
2017-05-31T13:03:07.723Z,4.40
2017-05-31T13:05:35.266Z,3.56
2017-05-31T13:08:02.857Z,3.62
2017-05-31T13:10:30.422Z,3.62
2017-05-31T13:12:57.974Z,3.70
2017-05-31T13:15:25.585Z,4.06
2017-05-31T13:17:53.146Z,4.74
2017-05-31T13:20:20.687Z,3.82
2017-05-31T13:22:48.321Z,4.32
2017-05-31T13:25:15.860Z,3.96
2017-05-31T13:27:43.402Z,4.00
2017-05-31T13:30:11.167Z,3.84
2017-05-31T13:32:38.759Z,4.00
2017-05-31T13:35:06.303Z,4.16
2017-05-31T13:37:33.897Z,4.30
2017-05-31T13:40:01.454Z,4.22
2017-05-31T13:42:30.489Z,3.94
2017-05-31T13:44:58.072Z,4.54
2017-05-31T13:47:25.886Z,4.10
2017-05-31T13:49:53.435Z,4.40
2017-05-31T13:52:21.058Z,4.04
2017-05-31T13:54:48.624Z,4.76
2017-05-31T13:57:16.175Z,4.08
2017-05-31T13:59:43.746Z,4.36
2017-05-31T14:02:11.362Z,3.74
2017-05-31T14:04:38.942Z,5.36
2017-05-31T14:07:06.721Z,3.80
2017-05-31T14:09:34.345Z,4.68
2017-05-31T14:12:01.886Z,4.30
2017-05-31T14:14:29.438Z,4.06
2017-05-31T14:16:57.043Z,4.00
2017-05-31T14:19:24.830Z,3.98
2017-05-31T14:21:52.374Z,4.42
2017-05-31T14:24:20.066Z,4.62
2017-05-31T14:26:48.698Z,3.74
2017-05-31T14:29:16.321Z,4.40
2017-05-31T14:31:43.910Z,4.54
2017-05-31T14:34:12.056Z,4.00
2017-05-31T14:36:39.608Z,4.28
2017-05-31T14:39:07.209Z,4.22
2017-05-31T14:41:35.202Z,4.54
2017-05-31T14:44:02.751Z,4.20
2017-05-31T14:46:30.374Z,4.38
2017-05-31T14:48:58.577Z,5.04
2017-05-31T14:51:26.187Z,4.16
2017-05-31T14:53:53.854Z,4.70
2017-05-31T14:56:21.461Z,4.18
2017-05-31T14:58:49.290Z,4.66
2017-05-31T15:01:17.492Z,4.96
2017-05-31T15:03:45.102Z,4.28
2017-05-31T15:06:12.766Z,4.28
2017-05-31T15:08:40.406Z,4.10
2017-05-31T15:11:08.420Z,5.02
2017-05-31T15:13:35.968Z,5.04
2017-05-31T15:16:03.570Z,4.94
2017-05-31T15:18:31.111Z,4.64
2017-05-31T15:20:58.673Z,5.06
2017-05-31T15:23:26.665Z,4.68
2017-05-31T15:25:54.218Z,4.86
2017-05-31T15:28:21.773Z,4.50
2017-05-31T15:30:49.595Z,4.66
2017-05-31T15:33:17.149Z,4.62
2017-05-31T15:35:44.963Z,4.40
2017-05-31T15:38:12.581Z,4.36
2017-05-31T15:40:40.622Z,4.66
2017-05-31T15:43:08.223Z,5.02
2017-05-31T15:45:35.828Z,4.94
2017-05-31T15:48:03.454Z,5.20
2017-05-31T15:50:31.242Z,4.46
2017-05-31T15:52:58.841Z,4.48
2017-05-31T15:55:26.687Z,4.80
2017-05-31T15:57:54.238Z,4.36
2017-05-31T16:00:21.959Z,4.82
2017-05-31T16:02:49.523Z,5.32
2017-05-31T16:05:18.182Z,4.40
2017-05-31T16:07:45.790Z,5.56
2017-05-31T16:10:14.419Z,5.26
2017-05-31T16:12:42.050Z,5.72
2017-05-31T16:15:09.778Z,5.70
2017-05-31T16:17:37.398Z,5.80
2017-05-31T16:20:04.986Z,5.90
2017-05-31T16:22:32.628Z,5.22
2017-05-31T16:25:00.211Z,6.04
2017-05-31T16:27:27.782Z,6.02
2017-05-31T16:29:55.382Z,5.66
2017-05-31T16:32:22.996Z,5.50
2017-05-31T16:34:50.833Z,6.04
2017-05-31T16:37:18.440Z,5.22
2017-05-31T16:39:46.063Z,6.36
2017-05-31T16:42:13.674Z,5.92
2017-05-31T16:44:41.263Z,5.10
2017-05-31T16:47:09.148Z,5.78
2017-05-31T16:49:36.689Z,5.50
2017-05-31T16:52:04.252Z,5.18
2017-05-31T16:54:31.841Z,5.50
2017-05-31T16:56:59.402Z,6.16
2017-05-31T16:59:26.942Z,5.04
2017-05-31T17:01:56.438Z,5.56
2017-05-31T17:04:24.491Z,5.60
2017-05-31T17:06:52.248Z,5.20
2017-05-31T17:09:19.998Z,4.80
2017-05-31T17:11:48.079Z,5.18
2017-05-31T17:14:16.254Z,5.14
2017-05-31T17:16:43.849Z,4.60
2017-05-31T17:19:11.620Z,5.54
2017-05-31T17:21:39.308Z,5.66
2017-05-31T17:24:07.048Z,6.28
2017-05-31T17:26:34.978Z,6.04
2017-05-31T17:29:02.784Z,6.00
2017-05-31T17:31:30.454Z,6.48
2017-05-31T17:33:58.226Z,6.92
2017-05-31T17:36:26.023Z,7.50
2017-05-31T17:38:53.634Z,7.40
2017-05-31T17:41:21.226Z,7.56
2017-05-31T17:43:49.022Z,7.04
2017-05-31T17:46:16.627Z,7.76
2017-05-31T17:48:44.187Z,7.00
2017-05-31T17:51:12.501Z,7.70
2017-05-31T17:53:40.403Z,7.78
2017-05-31T17:56:07.951Z,7.78
2017-05-31T17:58:35.994Z,7.20
2017-05-31T18:01:03.980Z,7.22
2017-05-31T18:03:31.538Z,6.96
2017-05-31T18:05:59.106Z,6.94
2017-05-31T18:08:27.522Z,7.14
2017-05-31T18:10:55.358Z,7.68
2017-05-31T18:13:23.998Z,7.00
2017-05-31T18:15:51.610Z,7.66
2017-05-31T18:18:19.407Z,7.68
2017-05-31T18:20:47.064Z,7.40
2017-05-31T18:23:15.861Z,6.98
2017-05-31T18:25:43.550Z,7.48
2017-05-31T18:28:11.105Z,8.56
2017-05-31T18:30:38.828Z,8.22
2017-05-31T18:33:06.386Z,7.30
2017-05-31T18:35:33.939Z,9.00
2017-05-31T18:38:01.558Z,8.30
2017-05-31T18:40:29.109Z,8.30
2017-05-31T18:42:56.694Z,9.28
2017-05-31T18:45:24.324Z,7.93
2017-05-31T18:47:51.914Z,8.78
2017-05-31T18:50:19.458Z,7.82
2017-05-31T18:52:47.082Z,10.64
2017-05-31T18:55:14.685Z,15.96
2017-05-31T18:57:42.511Z,9.12
2017-05-31T19:00:10.281Z,9.36
2017-05-31T19:02:37.841Z,9.98
2017-05-31T19:05:05.393Z,8.00
2017-05-31T19:07:32.985Z,8.56
2017-05-31T19:10:00.663Z,8.52
2017-05-31T19:12:28.241Z,8.46
2017-05-31T19:14:55.861Z,8.82
2017-05-31T19:17:23.438Z,8.80
2017-05-31T19:19:51.047Z,9.42
2017-05-31T19:22:18.722Z,8.94
2017-05-31T19:24:46.289Z,8.38
2017-05-31T19:27:13.859Z,9.20
2017-05-31T19:29:41.470Z,10.80
2017-05-31T19:32:09.124Z,9.90
2017-05-31T19:34:36.687Z,10.42
2017-05-31T19:37:04.251Z,9.54
2017-05-31T19:39:32.068Z,10.30
2017-05-31T19:41:59.638Z,10.36
2017-05-31T19:44:27.199Z,10.70
2017-05-31T19:46:54.798Z,11.82
2017-05-31T19:49:22.396Z,11.06
2017-05-31T19:51:49.947Z,11.60
2017-05-31T19:54:17.639Z,10.34
2017-05-31T19:56:45.372Z,11.06
2017-05-31T19:59:13.190Z,12.60
2017-05-31T20:01:40.797Z,11.00
2017-05-31T20:04:08.372Z,11.60
2017-05-31T20:06:36.885Z,10.58
2017-05-31T20:09:04.560Z,11.20
2017-05-31T20:11:32.112Z,9.14
2017-05-31T20:13:59.675Z,8.50
2017-05-31T20:16:27.296Z,9.16
2017-05-31T20:18:54.863Z,9.78
2017-05-31T20:21:22.419Z,8.86
2017-05-31T20:23:50.024Z,8.26
2017-05-31T20:26:17.565Z,10.48
2017-05-31T20:28:45.127Z,11.52
2017-05-31T20:31:12.716Z,10.60
2017-05-31T20:33:40.282Z,10.90
2017-05-31T20:36:07.862Z,11.02
2017-05-31T20:38:35.442Z,11.46
2017-05-31T20:41:02.987Z,11.36
2017-05-31T20:43:30.534Z,10.54
2017-05-31T20:45:58.154Z,9.92
2017-05-31T20:48:25.709Z,11.28
2017-05-31T20:50:53.278Z,10.60
2017-05-31T20:53:20.873Z,9.56
2017-05-31T20:55:48.429Z,11.72
2017-05-31T20:58:15.983Z,12.38
2017-05-31T21:00:43.714Z,11.38
2017-05-31T21:03:11.259Z,10.80
2017-05-31T21:05:38.831Z,11.60
2017-05-31T21:08:10.638Z,11.84
2017-05-31T21:10:38.262Z,11.20
2017-05-31T21:13:05.840Z,11.72
2017-05-31T21:15:33.486Z,11.80
2017-05-31T21:18:25.438Z,10.88
2017-05-31T21:20:53.114Z,11.28
2017-05-31T21:23:20.708Z,11.20
2017-05-31T21:25:48.332Z,11.64
2017-05-31T21:28:15.994Z,10.48
2017-05-31T21:30:43.699Z,12.28
2017-05-31T21:33:11.293Z,11.20
2017-05-31T21:35:38.882Z,9.94
2017-05-31T21:38:27.908Z,10.10
2017-05-31T21:40:55.509Z,9.72
2017-05-31T21:43:23.102Z,10.32
2017-05-31T21:45:50.757Z,9.66
2017-05-31T21:48:18.366Z,9.68
2017-05-31T21:50:45.960Z,10.88
2017-05-31T21:53:14.282Z,10.64
2017-05-31T21:55:41.892Z,11.72
2017-05-31T21:58:09.492Z,13.32
2017-05-31T22:00:37.232Z,11.98
2017-05-31T22:03:05.084Z,11.10
2017-05-31T22:05:32.692Z,11.10
2017-05-31T22:08:00.321Z,10.12
2017-05-31T22:10:27.918Z,10.86
2017-05-31T22:12:55.797Z,11.32
2017-05-31T22:15:23.453Z,10.90
2017-05-31T22:17:51.053Z,11.00
2017-05-31T22:20:18.879Z,10.92
2017-05-31T22:22:47.315Z,11.02
2017-05-31T22:25:14.929Z,10.24
2017-05-31T22:27:42.525Z,11.34
2017-05-31T22:30:10.331Z,11.16
2017-05-31T22:32:37.940Z,11.70
2017-05-31T22:35:05.540Z,11.40
2017-05-31T22:37:33.217Z,12.60
2017-05-31T22:40:00.877Z,11.16
2017-05-31T22:42:28.492Z,11.38
2017-05-31T22:44:56.119Z,11.94
2017-05-31T22:47:23.718Z,12.20
2017-05-31T22:49:51.368Z,12.32
2017-05-31T22:52:19.001Z,12.62
2017-05-31T22:54:46.596Z,12.10
2017-05-31T22:57:58.613Z,11.40
2017-05-31T23:00:26.337Z,11.74
2017-05-31T23:02:53.942Z,11.94
2017-05-31T23:05:21.777Z,12.66
2017-05-31T23:07:49.415Z,12.42
2017-05-31T23:10:17.012Z,12.46
2017-05-31T23:12:44.606Z,12.18
2017-05-31T23:15:12.235Z,13.94
2017-05-31T23:17:39.863Z,12.88
2017-05-31T23:20:07.452Z,11.58
2017-05-31T23:22:35.090Z,12.04
2017-05-31T23:25:02.692Z,11.98
2017-05-31T23:27:30.292Z,11.56
2017-05-31T23:29:58.115Z,12.50
2017-05-31T23:32:25.762Z,12.92
2017-05-31T23:34:53.594Z,12.60
2017-05-31T23:37:21.188Z,11.42
2017-05-31T23:39:48.848Z,13.08
2017-05-31T23:42:16.749Z,14.30
2017-05-31T23:44:44.629Z,11.56
2017-05-31T23:47:12.256Z,12.32
2017-05-31T23:49:39.850Z,13.10
2017-05-31T23:52:07.732Z,12.54
2017-05-31T23:54:35.373Z,11.80
2017-05-31T23:57:02.966Z,13.20
2017-05-31T23:59:30.814Z,12.22
